sensor_id;sensor_type;location;lat;lon;timestamp;pressure;altitude;pressure_sealevel;temperature;humidity
46534;BME280;32260;52.008;4.752;2024-03-02T00:00:54;99870.03;;;8.86;72.17
46534;BME280;32260;52.008;4.752;2024-03-02T00:03:20;99864.69;;;8.88;72.28
46534;BME280;32260;52.008;4.752;2024-03-02T00:05:50;99871.53;;;8.95;71.84
46534;BME280;32260;52.008;4.752;2024-03-02T00:08:24;99883.03;;;8.94;72.56
46534;BME280;32260;52.008;4.752;2024-03-02T00:10:51;99891.50;;;8.74;72.97
46534;BME280;32260;52.008;4.752;2024-03-02T00:13:21;99886.34;;;8.69;73.30
46534;BME280;32260;52.008;4.752;2024-03-02T00:15:54;99886.34;;;8.69;73.55
46534;BME280;32260;52.008;4.752;2024-03-02T00:20:59;99893.31;;;8.73;73.67
46534;BME280;32260;52.008;4.752;2024-03-02T00:23:29;99902.13;;;8.72;73.77
46534;BME280;32260;52.008;4.752;2024-03-02T00:25:57;99907.78;;;8.58;73.63
46534;BME280;32260;52.008;4.752;2024-03-02T00:28:27;99893.38;;;8.70;73.36
46534;BME280;32260;52.008;4.752;2024-03-02T00:30:58;99897.00;;;8.66;74.20
46534;BME280;32260;52.008;4.752;2024-03-02T00:33:27;99901.47;;;8.64;73.78
46534;BME280;32260;52.008;4.752;2024-03-02T00:35:56;99891.06;;;8.58;73.72
46534;BME280;32260;52.008;4.752;2024-03-02T00:38:23;99902.47;;;8.60;74.04
46534;BME280;32260;52.008;4.752;2024-03-02T00:40:49;99892.06;;;8.54;74.01
46534;BME280;32260;52.008;4.752;2024-03-02T00:43:43;99885.66;;;8.63;73.94
46534;BME280;32260;52.008;4.752;2024-03-02T00:46:11;99891.97;;;8.57;73.81
46534;BME280;32260;52.008;4.752;2024-03-02T00:48:40;99886.69;;;8.57;73.99
46534;BME280;32260;52.008;4.752;2024-03-02T00:51:08;99879.72;;;8.54;74.36
46534;BME280;32260;52.008;4.752;2024-03-02T00:53:35;99884.88;;;8.59;73.74
46534;BME280;32260;52.008;4.752;2024-03-02T00:56:01;99891.34;;;8.47;73.50
46534;BME280;32260;52.008;4.752;2024-03-02T00:58:28;99895.50;;;8.56;73.22
46534;BME280;32260;52.008;4.752;2024-03-02T01:00:54;99911.63;;;8.45;73.10
46534;BME280;32260;52.008;4.752;2024-03-02T01:03:21;99916.00;;;8.45;73.12
46534;BME280;32260;52.008;4.752;2024-03-02T01:05:47;99897.47;;;8.49;73.37
46534;BME280;32260;52.008;4.752;2024-03-02T01:08:14;99910.00;;;8.39;73.19
46534;BME280;32260;52.008;4.752;2024-03-02T01:10:40;99911.69;;;8.42;72.85
46534;BME280;32260;52.008;4.752;2024-03-02T01:13:07;99900.19;;;8.46;72.75
46534;BME280;32260;52.008;4.752;2024-03-02T01:15:33;99899.28;;;8.46;73.16
46534;BME280;32260;52.008;4.752;2024-03-02T01:18:00;99902.78;;;8.48;73.17
46534;BME280;32260;52.008;4.752;2024-03-02T01:20:26;99889.59;;;8.48;72.93
46534;BME280;32260;52.008;4.752;2024-03-02T01:22:53;99883.44;;;8.46;72.99
46534;BME280;32260;52.008;4.752;2024-03-02T01:25:19;99881.69;;;8.45;73.06
46534;BME280;32260;52.008;4.752;2024-03-02T01:27:45;99891.41;;;8.44;73.10
46534;BME280;32260;52.008;4.752;2024-03-02T01:30:11;99912.47;;;8.46;73.17
46534;BME280;32260;52.008;4.752;2024-03-02T01:32:39;99906.50;;;8.39;73.55
46534;BME280;32260;52.008;4.752;2024-03-02T01:35:05;99913.53;;;8.38;73.49
46534;BME280;32260;52.008;4.752;2024-03-02T01:37:33;99926.66;;;8.41;73.13
46534;BME280;32260;52.008;4.752;2024-03-02T01:39:59;99933.69;;;8.41;73.05
46534;BME280;32260;52.008;4.752;2024-03-02T01:42:25;99918.66;;;8.45;73.65
46534;BME280;32260;52.008;4.752;2024-03-02T01:44:52;99920.44;;;8.44;73.48
46534;BME280;32260;52.008;4.752;2024-03-02T01:47:18;99915.13;;;8.46;73.43
46534;BME280;32260;52.008;4.752;2024-03-02T01:49:44;99900.19;;;8.46;73.68
46534;BME280;32260;52.008;4.752;2024-03-02T01:52:10;99913.47;;;8.41;74.17
46534;BME280;32260;52.008;4.752;2024-03-02T01:54:37;99929.34;;;8.40;74.34
46534;BME280;32260;52.008;4.752;2024-03-02T01:57:04;99947.03;;;8.36;74.51
46534;BME280;32260;52.008;4.752;2024-03-02T01:59:30;99924.13;;;8.37;74.33
46534;BME280;32260;52.008;4.752;2024-03-02T02:01:56;99914.47;;;8.36;73.87
46534;BME280;32260;52.008;4.752;2024-03-02T02:04:22;99909.25;;;8.34;73.87
46534;BME280;32260;52.008;4.752;2024-03-02T02:06:53;99913.53;;;8.38;73.95
46534;BME280;32260;52.008;4.752;2024-03-02T02:09:19;99922.25;;;8.42;73.95
46534;BME280;32260;52.008;4.752;2024-03-02T02:11:46;99916.31;;;8.32;74.06
46534;BME280;32260;52.008;4.752;2024-03-02T02:14:12;99920.88;;;8.27;73.70
46534;BME280;32260;52.008;4.752;2024-03-02T02:16:38;99926.22;;;8.24;73.98
46534;BME280;32260;52.008;4.752;2024-03-02T02:19:04;99933.25;;;8.25;73.55
46534;BME280;32260;52.008;4.752;2024-03-02T02:21:31;99930.72;;;8.20;73.53
46534;BME280;32260;52.008;4.752;2024-03-02T02:23:57;99935.06;;;8.23;73.58
46534;BME280;32260;52.008;4.752;2024-03-02T02:26:24;99936.63;;;8.30;73.60
46534;BME280;32260;52.008;4.752;2024-03-02T02:28:50;99940.97;;;8.33;74.02
46534;BME280;32260;52.008;4.752;2024-03-02T02:31:16;99933.09;;;8.31;74.02
46534;BME280;32260;52.008;4.752;2024-03-02T02:33:43;99939.94;;;8.38;73.66
46534;BME280;32260;52.008;4.752;2024-03-02T02:36:09;99944.25;;;8.42;73.64
46534;BME280;32260;52.008;4.752;2024-03-02T02:38:40;99942.47;;;8.43;73.35
46534;BME280;32260;52.008;4.752;2024-03-02T02:41:07;99940.69;;;8.43;73.10
46534;BME280;32260;52.008;4.752;2024-03-02T02:43:34;99942.50;;;8.41;73.39
46534;BME280;32260;52.008;4.752;2024-03-02T02:46:00;99943.31;;;8.43;73.74
46534;BME280;32260;52.008;4.752;2024-03-02T02:48:26;99938.38;;;8.31;73.77
46534;BME280;32260;52.008;4.752;2024-03-02T02:50:52;99939.06;;;8.38;73.48
46534;BME280;32260;52.008;4.752;2024-03-02T02:53:19;99931.09;;;8.39;73.29
46534;BME280;32260;52.008;4.752;2024-03-02T02:55:45;99929.31;;;8.41;73.98
46534;BME280;32260;52.008;4.752;2024-03-02T02:58:11;99925.75;;;8.42;73.67
46534;BME280;32260;52.008;4.752;2024-03-02T03:00:37;99935.38;;;8.45;73.49
46534;BME280;32260;52.008;4.752;2024-03-02T03:03:03;99934.47;;;8.48;73.23
46534;BME280;32260;52.008;4.752;2024-03-02T03:05:30;99930.13;;;8.43;73.66
46534;BME280;32260;52.008;4.752;2024-03-02T03:07:56;99926.72;;;8.40;73.46
46534;BME280;32260;52.008;4.752;2024-03-02T03:10:22;99929.38;;;8.38;73.37
46534;BME280;32260;52.008;4.752;2024-03-02T03:12:51;99933.91;;;8.33;73.01
46534;BME280;32260;52.008;4.752;2024-03-02T03:15:18;99933.00;;;8.34;72.95
46534;BME280;32260;52.008;4.752;2024-03-02T03:17:44;99932.16;;;8.32;73.06
46534;BME280;32260;52.008;4.752;2024-03-02T03:20:11;99938.38;;;8.31;73.06
46534;BME280;32260;52.008;4.752;2024-03-02T03:22:40;99939.28;;;8.29;73.17
46534;BME280;32260;52.008;4.752;2024-03-02T03:25:06;99934.75;;;8.35;73.39
46534;BME280;32260;52.008;4.752;2024-03-02T03:27:36;99939.13;;;8.36;73.01
46534;BME280;32260;52.008;4.752;2024-03-02T03:30:02;99941.66;;;8.39;73.11
46534;BME280;32260;52.008;4.752;2024-03-02T03:32:29;99943.66;;;8.31;72.99
46534;BME280;32260;52.008;4.752;2024-03-02T03:34:55;99943.56;;;8.34;72.73
46534;BME280;32260;52.008;4.752;2024-03-02T03:37:21;99953.31;;;8.31;73.02
46534;BME280;32260;52.008;4.752;2024-03-02T03:39:47;99955.13;;;8.30;72.92
46534;BME280;32260;52.008;4.752;2024-03-02T03:42:13;99957.75;;;8.30;72.90
46534;BME280;32260;52.008;4.752;2024-03-02T03:44:39;99960.50;;;8.25;73.08
46534;BME280;32260;52.008;4.752;2024-03-02T03:47:07;99950.78;;;8.26;73.46
46534;BME280;32260;52.008;4.752;2024-03-02T03:49:33;99952.53;;;8.27;72.68
46534;BME280;32260;52.008;4.752;2024-03-02T03:51:59;99964.03;;;8.24;72.95
46534;BME280;32260;52.008;4.752;2024-03-02T03:54:26;99965.09;;;8.17;72.94
46534;BME280;32260;52.008;4.752;2024-03-02T03:56:52;99971.34;;;8.13;72.63
46534;BME280;32260;52.008;4.752;2024-03-02T03:59:19;99965.41;;;8.03;72.52
46534;BME280;32260;52.008;4.752;2024-03-02T04:01:45;99962.78;;;8.03;72.96
46534;BME280;32260;52.008;4.752;2024-03-02T04:04:11;99974.31;;;7.99;72.41
46534;BME280;32260;52.008;4.752;2024-03-02T04:06:37;99967.53;;;7.89;73.05
46534;BME280;32260;52.008;4.752;2024-03-02T04:09:03;99966.78;;;7.82;73.24
46534;BME280;32260;52.008;4.752;2024-03-02T04:11:30;99967.00;;;7.73;73.05
46534;BME280;32260;52.008;4.752;2024-03-02T04:13:56;99973.13;;;7.73;73.43
46534;BME280;32260;52.008;4.752;2024-03-02T04:16:22;99974.97;;;7.70;73.33
46534;BME280;32260;52.008;4.752;2024-03-02T04:18:48;99974.16;;;7.66;72.79
46534;BME280;32260;52.008;4.752;2024-03-02T04:21:15;99975.13;;;7.62;73.01
46534;BME280;32260;52.008;4.752;2024-03-02T04:23:41;99974.38;;;7.57;73.41
46534;BME280;32260;52.008;4.752;2024-03-02T04:26:07;99978.63;;;7.64;73.80
46534;BME280;32260;52.008;4.752;2024-03-02T04:28:33;99967.19;;;7.64;73.83
46534;BME280;32260;52.008;4.752;2024-03-02T04:30:59;99975.09;;;7.65;74.03
46534;BME280;32260;52.008;4.752;2024-03-02T04:33:26;99974.13;;;7.69;73.26
46534;BME280;32260;52.008;4.752;2024-03-02T04:35:52;99978.53;;;7.67;73.52
46534;BME280;32260;52.008;4.752;2024-03-02T04:38:18;99971.66;;;7.60;73.69
46534;BME280;32260;52.008;4.752;2024-03-02T04:40:44;99971.78;;;7.54;73.27
46534;BME280;32260;52.008;4.752;2024-03-02T04:43:10;99970.94;;;7.53;73.33
46534;BME280;32260;52.008;4.752;2024-03-02T04:45:39;99970.13;;;7.50;74.03
46534;BME280;32260;52.008;4.752;2024-03-02T04:48:05;99975.34;;;7.53;73.60
46534;BME280;32260;52.008;4.752;2024-03-02T04:50:32;99980.69;;;7.50;73.43
46534;BME280;32260;52.008;4.752;2024-03-02T04:52:58;99989.47;;;7.49;74.11
46534;BME280;32260;52.008;4.752;2024-03-02T04:55:24;100006.13;;;7.51;73.39
46534;BME280;32260;52.008;4.752;2024-03-02T04:58:10;100004.47;;;7.47;73.71
46534;BME280;32260;52.008;4.752;2024-03-02T05:00:36;100001.03;;;7.43;73.34
46534;BME280;32260;52.008;4.752;2024-03-02T05:03:03;100008.81;;;7.48;73.39
46534;BME280;32260;52.008;4.752;2024-03-02T05:05:29;100001.75;;;7.50;73.30
46534;BME280;32260;52.008;4.752;2024-03-02T05:07:56;100005.28;;;7.49;73.82
46534;BME280;32260;52.008;4.752;2024-03-02T05:10:22;100004.41;;;7.50;73.69
46534;BME280;32260;52.008;4.752;2024-03-02T05:12:48;100002.59;;;7.52;73.29
46534;BME280;32260;52.008;4.752;2024-03-02T05:15:29;100002.66;;;7.50;73.44
46534;BME280;32260;52.008;4.752;2024-03-02T05:17:55;99996.44;;;7.51;73.13
46534;BME280;32260;52.008;4.752;2024-03-02T05:20:22;100002.69;;;7.47;73.68
46534;BME280;32260;52.008;4.752;2024-03-02T05:22:49;100002.75;;;7.45;72.93
46534;BME280;32260;52.008;4.752;2024-03-02T05:25:15;100014.09;;;7.48;73.00
46534;BME280;32260;52.008;4.752;2024-03-02T05:27:41;100009.75;;;7.45;73.46
46534;BME280;32260;52.008;4.752;2024-03-02T05:30:08;100015.03;;;7.45;73.55
46534;BME280;32260;52.008;4.752;2024-03-02T05:32:34;100011.63;;;7.41;72.96
46534;BME280;32260;52.008;4.752;2024-03-02T05:35:01;100017.78;;;7.40;73.32
46534;BME280;32260;52.008;4.752;2024-03-02T05:37:27;100025.81;;;7.34;73.42
46534;BME280;32260;52.008;4.752;2024-03-02T05:39:53;100019.53;;;7.41;73.38
46534;BME280;32260;52.008;4.752;2024-03-02T05:42:19;100026.50;;;7.42;73.58
46534;BME280;32260;52.008;4.752;2024-03-02T05:44:45;100027.44;;;7.41;73.81
46534;BME280;32260;52.008;4.752;2024-03-02T05:47:11;100027.22;;;7.51;73.91
46534;BME280;32260;52.008;4.752;2024-03-02T05:49:38;100028.06;;;7.53;74.34
46534;BME280;32260;52.008;4.752;2024-03-02T05:52:04;100037.56;;;7.61;74.16
46534;BME280;32260;52.008;4.752;2024-03-02T05:54:30;100026.00;;;7.67;73.51
46534;BME280;32260;52.008;4.752;2024-03-02T05:56:56;100027.63;;;7.74;73.79
46534;BME280;32260;52.008;4.752;2024-03-02T05:59:22;100030.16;;;7.77;73.62
46534;BME280;32260;52.008;4.752;2024-03-02T06:01:49;100031.84;;;7.82;73.39
46534;BME280;32260;52.008;4.752;2024-03-02T06:04:17;100024.00;;;7.78;73.32
46534;BME280;32260;52.008;4.752;2024-03-02T06:06:43;100026.50;;;7.86;73.28
46534;BME280;32260;52.008;4.752;2024-03-02T06:09:10;100033.47;;;7.89;72.95
46534;BME280;32260;52.008;4.752;2024-03-02T06:11:39;100018.59;;;7.85;72.69
46534;BME280;32260;52.008;4.752;2024-03-02T06:14:07;100023.72;;;7.92;72.49
46534;BME280;32260;52.008;4.752;2024-03-02T06:16:34;100031.66;;;7.91;72.32
46534;BME280;32260;52.008;4.752;2024-03-02T06:19:01;100036.91;;;7.92;72.13
46534;BME280;32260;52.008;4.752;2024-03-02T06:21:28;100048.31;;;7.93;71.90
46534;BME280;32260;52.008;4.752;2024-03-02T06:23:55;100049.22;;;7.92;72.07
46534;BME280;32260;52.008;4.752;2024-03-02T06:26:21;100043.03;;;7.93;71.41
46534;BME280;32260;52.008;4.752;2024-03-02T06:28:47;100049.34;;;7.86;71.27
46534;BME280;32260;52.008;4.752;2024-03-02T06:31:13;100047.59;;;7.86;71.54
46534;BME280;32260;52.008;4.752;2024-03-02T06:33:40;100047.59;;;7.86;70.92
46534;BME280;32260;52.008;4.752;2024-03-02T06:36:07;100056.41;;;7.85;71.09
46534;BME280;32260;52.008;4.752;2024-03-02T06:38:35;100055.72;;;7.75;71.23
46534;BME280;32260;52.008;4.752;2024-03-02T06:41:01;100059.22;;;7.76;71.38
46534;BME280;32260;52.008;4.752;2024-03-02T06:43:28;100055.91;;;7.66;71.27
46534;BME280;32260;52.008;4.752;2024-03-02T06:45:54;100056.69;;;7.70;70.99
46534;BME280;32260;52.008;4.752;2024-03-02T06:48:20;100061.00;;;7.75;70.95
46534;BME280;32260;52.008;4.752;2024-03-02T06:50:47;100055.66;;;7.78;70.99
46534;BME280;32260;52.008;4.752;2024-03-02T06:53:13;100059.09;;;7.82;70.92
46534;BME280;32260;52.008;4.752;2024-03-02T06:55:43;100060.75;;;7.88;71.29
46534;BME280;32260;52.008;4.752;2024-03-02T06:58:11;100059.88;;;7.86;70.52
46534;BME280;32260;52.008;4.752;2024-03-02T07:00:37;100066.06;;;7.85;70.44
46534;BME280;32260;52.008;4.752;2024-03-02T07:03:04;100066.13;;;7.82;70.47
46534;BME280;32260;52.008;4.752;2024-03-02T07:05:30;100068.94;;;7.74;70.05
46534;BME280;32260;52.008;4.752;2024-03-02T07:07:56;100070.53;;;7.83;70.28
46534;BME280;32260;52.008;4.752;2024-03-02T07:10:22;100069.84;;;7.73;70.43
46534;BME280;32260;52.008;4.752;2024-03-02T07:12:49;100077.66;;;7.76;70.38
46534;BME280;32260;52.008;4.752;2024-03-02T07:15:15;100081.25;;;7.73;69.97
46534;BME280;32260;52.008;4.752;2024-03-02T07:18:01;100081.31;;;7.70;70.74
46534;BME280;32260;52.008;4.752;2024-03-02T07:20:27;100089.34;;;7.64;70.71
46534;BME280;32260;52.008;4.752;2024-03-02T07:22:54;100085.81;;;7.65;70.17
46534;BME280;32260;52.008;4.752;2024-03-02T07:25:20;100086.75;;;7.61;70.81
46534;BME280;32260;52.008;4.752;2024-03-02T07:27:46;100084.22;;;7.58;70.77
46534;BME280;32260;52.008;4.752;2024-03-02T07:30:14;100097.44;;;7.56;70.55
46534;BME280;32260;52.008;4.752;2024-03-02T07:32:42;100092.88;;;7.63;71.19
46534;BME280;32260;52.008;4.752;2024-03-02T07:35:12;100105.34;;;7.55;71.29
46534;BME280;32260;52.008;4.752;2024-03-02T07:37:40;100103.66;;;7.51;71.10
46534;BME280;32260;52.008;4.752;2024-03-02T07:40:07;100103.47;;;7.60;71.36
46534;BME280;32260;52.008;4.752;2024-03-02T07:42:41;100095.53;;;7.63;71.28
46534;BME280;32260;52.008;4.752;2024-03-02T07:45:07;100100.59;;;7.72;71.03
46534;BME280;32260;52.008;4.752;2024-03-02T07:47:34;100108.38;;;7.78;70.98
46534;BME280;32260;52.008;4.752;2024-03-02T07:50:01;100099.53;;;7.83;71.58
46534;BME280;32260;52.008;4.752;2024-03-02T07:52:28;100110.84;;;7.88;71.11
46534;BME280;32260;52.008;4.752;2024-03-02T07:54:54;100108.00;;;7.97;71.13
46534;BME280;32260;52.008;4.752;2024-03-02T07:57:21;100108.81;;;8.01;70.89
46534;BME280;32260;52.008;4.752;2024-03-02T07:59:47;100107.88;;;8.03;70.67
46534;BME280;32260;52.008;4.752;2024-03-02T08:02:13;100107.72;;;8.11;70.69
46534;BME280;32260;52.008;4.752;2024-03-02T08:04:40;100117.19;;;8.20;70.81
46534;BME280;32260;52.008;4.752;2024-03-02T08:07:06;100107.63;;;8.16;70.26
46534;BME280;32260;52.008;4.752;2024-03-02T08:09:32;100110.13;;;8.22;70.15
46534;BME280;32260;52.008;4.752;2024-03-02T08:11:59;100120.72;;;8.20;70.26
46534;BME280;32260;52.008;4.752;2024-03-02T08:14:25;100108.50;;;8.16;70.49
46534;BME280;32260;52.008;4.752;2024-03-02T08:16:51;100108.25;;;8.27;70.07
46534;BME280;32260;52.008;4.752;2024-03-02T08:19:17;100114.41;;;8.26;70.09
46534;BME280;32260;52.008;4.752;2024-03-02T08:21:44;100105.50;;;8.32;69.80
46534;BME280;32260;52.008;4.752;2024-03-02T08:24:10;100108.81;;;8.41;69.61
46534;BME280;32260;52.008;4.752;2024-03-02T08:26:36;100106.22;;;8.38;69.11
46534;BME280;32260;52.008;4.752;2024-03-02T08:29:03;100106.22;;;8.38;68.69
46534;BME280;32260;52.008;4.752;2024-03-02T08:31:30;100102.41;;;8.53;68.77
46534;BME280;32260;52.008;4.752;2024-03-02T08:33:56;100106.69;;;8.59;68.77
46534;BME280;32260;52.008;4.752;2024-03-02T08:36:23;100096.06;;;8.61;68.83
46534;BME280;32260;52.008;4.752;2024-03-02T08:38:50;100099.66;;;8.58;68.43
46534;BME280;32260;52.008;4.752;2024-03-02T08:41:17;100091.53;;;8.67;68.68
46534;BME280;32260;52.008;4.752;2024-03-02T08:43:44;100095.88;;;8.70;67.72
46534;BME280;32260;52.008;4.752;2024-03-02T08:46:10;100095.56;;;8.81;68.17
46534;BME280;32260;52.008;4.752;2024-03-02T08:48:37;100102.59;;;8.82;68.19
46534;BME280;32260;52.008;4.752;2024-03-02T08:51:03;100107.84;;;8.85;67.37
46534;BME280;32260;52.008;4.752;2024-03-02T08:53:32;100104.00;;;8.97;67.64
46534;BME280;32260;52.008;4.752;2024-03-02T08:55:58;100108.22;;;9.04;67.46
46534;BME280;32260;52.008;4.752;2024-03-02T08:58:24;100111.56;;;9.12;67.36
46534;BME280;32260;52.008;4.752;2024-03-02T09:00:50;100127.25;;;9.17;67.26
46534;BME280;32260;52.008;4.752;2024-03-02T09:03:16;100124.66;;;9.15;66.30
46534;BME280;32260;52.008;4.752;2024-03-02T09:05:42;100115.59;;;9.26;66.38
46534;BME280;32260;52.008;4.752;2024-03-02T09:08:09;100124.41;;;9.26;65.57
46534;BME280;32260;52.008;4.752;2024-03-02T09:10:35;100122.50;;;9.31;64.89
46534;BME280;32260;52.008;4.752;2024-03-02T09:13:01;100115.16;;;9.43;65.07
46534;BME280;32260;52.008;4.752;2024-03-02T09:15:27;100117.56;;;9.50;65.47
46534;BME280;32260;52.008;4.752;2024-03-02T09:17:53;100118.16;;;9.62;64.45
46534;BME280;32260;52.008;4.752;2024-03-02T09:20:20;100125.22;;;9.61;64.17
46534;BME280;32260;52.008;4.752;2024-03-02T09:22:46;100119.66;;;9.70;64.28
46534;BME280;32260;52.008;4.752;2024-03-02T09:25:14;100132.78;;;9.75;64.17
46534;BME280;32260;52.008;4.752;2024-03-02T09:27:40;100126.22;;;9.88;63.79
46534;BME280;32260;52.008;4.752;2024-03-02T09:30:10;100127.06;;;9.91;63.40
46534;BME280;32260;52.008;4.752;2024-03-02T09:32:37;100128.66;;;9.96;63.75
46534;BME280;32260;52.008;4.752;2024-03-02T09:35:04;100123.19;;;10.02;63.50
46534;BME280;32260;52.008;4.752;2024-03-02T09:37:30;100130.25;;;10.02;62.30
46534;BME280;32260;52.008;4.752;2024-03-02T09:39:57;100136.06;;;10.15;62.48
46534;BME280;32260;52.008;4.752;2024-03-02T09:42:23;100129.97;;;10.11;62.29
46534;BME280;32260;52.008;4.752;2024-03-02T09:44:50;100120.72;;;10.26;63.25
46534;BME280;32260;52.008;4.752;2024-03-02T09:47:16;100117.03;;;10.32;62.13
46534;BME280;32260;52.008;4.752;2024-03-02T09:49:42;100121.97;;;10.44;61.79
46534;BME280;32260;52.008;4.752;2024-03-02T09:52:10;100124.56;;;10.46;60.33
46534;BME280;32260;52.008;4.752;2024-03-02T09:54:37;100125.16;;;10.56;60.61
46534;BME280;32260;52.008;4.752;2024-03-02T09:57:03;100133.94;;;10.56;60.15
46534;BME280;32260;52.008;4.752;2024-03-02T09:59:30;100136.28;;;10.67;60.58
46534;BME280;32260;52.008;4.752;2024-03-02T10:01:57;100138.78;;;10.72;60.68
46534;BME280;32260;52.008;4.752;2024-03-02T10:04:26;100138.47;;;10.81;60.69
46534;BME280;32260;52.008;4.752;2024-03-02T10:07:13;100146.03;;;10.93;59.67
46534;BME280;32260;52.008;4.752;2024-03-02T10:09:41;100149.38;;;10.98;59.51
46534;BME280;32260;52.008;4.752;2024-03-02T10:12:09;100141.69;;;10.91;59.06
46534;BME280;32260;52.008;4.752;2024-03-02T10:14:35;100148.41;;;11.01;59.80
46534;BME280;32260;52.008;4.752;2024-03-02T10:17:03;100141.13;;;11.08;59.57
46534;BME280;32260;52.008;4.752;2024-03-02T10:19:30;100127.97;;;11.05;58.36
46534;BME280;32260;52.008;4.752;2024-03-02T10:22:00;100135.78;;;11.09;57.70
46534;BME280;32260;52.008;4.752;2024-03-02T10:24:26;100134.63;;;11.18;58.27
46534;BME280;32260;52.008;4.752;2024-03-02T10:26:53;100120.22;;;11.25;58.38
46534;BME280;32260;52.008;4.752;2024-03-02T10:29:20;100117.56;;;11.25;56.82
46534;BME280;32260;52.008;4.752;2024-03-02T10:31:46;100101.81;;;11.46;57.02
46534;BME280;32260;52.008;4.752;2024-03-02T10:34:13;100102.56;;;11.49;56.46
46534;BME280;32260;52.008;4.752;2024-03-02T10:36:42;100108.44;;;11.59;55.74
46534;BME280;32260;52.008;4.752;2024-03-02T10:39:09;100100.34;;;11.62;55.71
46534;BME280;32260;52.008;4.752;2024-03-02T10:41:37;100091.06;;;11.74;55.33
46534;BME280;32260;52.008;4.752;2024-03-02T10:44:05;100100.56;;;11.81;55.86
46534;BME280;32260;52.008;4.752;2024-03-02T10:46:33;100087.81;;;11.91;54.63
46534;BME280;32260;52.008;4.752;2024-03-02T10:49:00;100089.81;;;12.08;53.98
46534;BME280;32260;52.008;4.752;2024-03-02T10:51:28;100089.75;;;12.10;53.71
46534;BME280;32260;52.008;4.752;2024-03-02T10:53:58;100093.56;;;12.26;53.29
46534;BME280;32260;52.008;4.752;2024-03-02T10:56:29;100073.81;;;12.34;51.92
46534;BME280;32260;52.008;4.752;2024-03-02T10:59:47;100075.03;;;12.47;52.59
46534;BME280;32260;52.008;4.752;2024-03-02T11:02:00;100088.31;;;12.47;54.36
46534;BME280;32260;52.008;4.752;2024-03-02T11:04:28;100083.75;;;12.51;53.97
46534;BME280;32260;52.008;4.752;2024-03-02T11:07:00;100081.94;;;12.73;53.65
46534;BME280;32260;52.008;4.752;2024-03-02T11:09:28;100082.69;;;12.77;52.49
46534;BME280;32260;52.008;4.752;2024-03-02T11:12:23;100070.25;;;13.00;53.29
46534;BME280;32260;52.008;4.752;2024-03-02T11:14:52;100078.09;;;13.03;52.92
46534;BME280;32260;52.008;4.752;2024-03-02T11:17:18;100074.25;;;13.10;51.72
46534;BME280;32260;52.008;4.752;2024-03-02T11:19:45;100071.97;;;13.21;52.70
46534;BME280;32260;52.008;4.752;2024-03-02T11:22:13;100078.75;;;13.29;50.97
46534;BME280;32260;52.008;4.752;2024-03-02T11:24:40;100077.09;;;13.26;49.43
46534;BME280;32260;52.008;4.752;2024-03-02T11:27:13;100080.28;;;13.34;50.36
46534;BME280;32260;52.008;4.752;2024-03-02T11:32:21;100069.59;;;13.56;50.61
46534;BME280;32260;52.008;4.752;2024-03-02T11:34:50;100070.38;;;13.58;50.00
46534;BME280;32260;52.008;4.752;2024-03-02T11:37:18;100070.59;;;13.54;49.16
46534;BME280;32260;52.008;4.752;2024-03-02T11:39:46;100069.22;;;13.64;49.60
46534;BME280;32260;52.008;4.752;2024-03-02T11:42:13;100061.97;;;13.68;49.78
46534;BME280;32260;52.008;4.752;2024-03-02T11:44:42;100061.06;;;13.88;50.40
46534;BME280;32260;52.008;4.752;2024-03-02T11:47:11;100061.00;;;13.89;48.94
46534;BME280;32260;52.008;4.752;2024-03-02T11:49:44;100064.66;;;14.06;49.07
46534;BME280;32260;52.008;4.752;2024-03-02T11:52:12;100061.66;;;13.95;48.03
46534;BME280;32260;52.008;4.752;2024-03-02T11:54:41;100060.34;;;14.03;47.47
46534;BME280;32260;52.008;4.752;2024-03-02T11:57:13;100054.16;;;14.03;47.54
46534;BME280;32260;52.008;4.752;2024-03-02T11:59:41;100051.00;;;13.95;48.23
46534;BME280;32260;52.008;4.752;2024-03-02T12:02:12;100038.03;;;14.06;48.17
46534;BME280;32260;52.008;4.752;2024-03-02T12:04:40;100041.63;;;14.05;47.44
46534;BME280;32260;52.008;4.752;2024-03-02T12:07:06;100035.72;;;14.17;47.71
46534;BME280;32260;52.008;4.752;2024-03-02T12:09:34;100027.13;;;14.30;47.26
46534;BME280;32260;52.008;4.752;2024-03-02T12:12:09;100033.53;;;14.45;47.44
46534;BME280;32260;52.008;4.752;2024-03-02T12:14:37;100031.94;;;14.40;46.87
46534;BME280;32260;52.008;4.752;2024-03-02T12:17:04;100029.75;;;14.49;46.97
46534;BME280;32260;52.008;4.752;2024-03-02T12:19:31;100016.22;;;14.53;46.34
46534;BME280;32260;52.008;4.752;2024-03-02T12:21:59;100007.91;;;14.60;45.33
46534;BME280;32260;52.008;4.752;2024-03-02T12:24:28;100015.03;;;14.59;45.27
46534;BME280;32260;52.008;4.752;2024-03-02T12:26:55;100011.59;;;14.57;46.21
46534;BME280;32260;52.008;4.752;2024-03-02T12:29:22;100002.56;;;14.60;45.43
46534;BME280;32260;52.008;4.752;2024-03-02T12:31:49;99999.13;;;14.57;45.67
46534;BME280;32260;52.008;4.752;2024-03-02T12:34:17;99995.84;;;14.70;45.31
46534;BME280;32260;52.008;4.752;2024-03-02T12:36:43;99997.59;;;14.88;46.13
46534;BME280;32260;52.008;4.752;2024-03-02T12:39:13;99997.03;;;14.99;45.22
46534;BME280;32260;52.008;4.752;2024-03-02T12:41:40;100002.13;;;15.04;44.90
46534;BME280;32260;52.008;4.752;2024-03-02T12:44:07;100008.84;;;15.11;44.33
46534;BME280;32260;52.008;4.752;2024-03-02T12:46:33;100004.47;;;15.10;44.94
46534;BME280;32260;52.008;4.752;2024-03-02T12:49:09;99997.31;;;15.28;44.02
46534;BME280;32260;52.008;4.752;2024-03-02T12:51:37;99997.91;;;15.33;43.97
46534;BME280;32260;52.008;4.752;2024-03-02T12:54:04;100006.66;;;15.53;44.19
46534;BME280;32260;52.008;4.752;2024-03-02T12:56:34;99989.09;;;15.65;43.39
46534;BME280;32260;52.008;4.752;2024-03-02T12:59:01;99985.69;;;15.63;43.76
46534;BME280;32260;52.008;4.752;2024-03-02T13:01:27;99987.03;;;15.70;43.80
46534;BME280;32260;52.008;4.752;2024-03-02T13:03:53;99985.34;;;15.69;43.94
46534;BME280;32260;52.008;4.752;2024-03-02T13:06:22;99982.31;;;15.59;44.05
46534;BME280;32260;52.008;4.752;2024-03-02T13:08:49;99971.50;;;15.45;43.60